Edward G. Pitka Sr Airport Galena US
ICAO: PAGA
IATA:
Category: Medium
Scheduled Services:

Elevation: 153 ft
TransAlt. 18000 ft.

Airport Communications:
AWOS 3:132.525
ANCHORAGE CNTR:127
CTAF:123
FAIRBANKS RDO:122.2
GALENA OPS:39.12
PMSV METRO:134.5

PAGA Zoom In..

Runways:

(A) RW 06 length 2786 ft width 80 ft
---- / hdg 73

(B) RW 07 length 7249 ft width 150 ft
---- / hdg 72

(C) RW 24 length 2786 ft width 80 ft
---- / hdg 253

(D) RW 25 length 7249 ft width 150 ft
ILS 109.50 / hdg 252

Location; PAGA
Day. 14 / Time. 13.56 Zulu
* Altimeter: 29.57
* Temperature: 08° c. 46.4°f.
* Wind from: 350° Speed 07 kn.
Dewpoint: 08° c.
Visibility: 4 Statute Miles.
Clouds: Few 400 ft.
Clouds: Broken 1900 ft.
Clouds: Overcast 3200 ft.
Conditions: Mist.

PAGA 141356Z AUTO 35007KT 4SM BR FEW004 BKN019 OVC032 08/08 A2957 RMK AO2 SLP015 T00830078


Wind From 350°
Speed 07 kn.

 
 
jpsmedia.com for Web Design worldairports.se 2018   terms of use